sensor_id;sensor_type;location;lat;lon;timestamp;pressure;altitude;pressure_sealevel;temperature;humidity
29433;BME280;16405;53.964;13.448;2023-05-24T00:00:42;101287.03;;;9.10;97.20
29433;BME280;16405;53.964;13.448;2023-05-24T00:03:08;101284.59;;;9.04;97.40
29433;BME280;16405;53.964;13.448;2023-05-24T00:05:34;101287.41;;;8.98;98.00
29433;BME280;16405;53.964;13.448;2023-05-24T00:08:03;101287.72;;;8.87;98.04
29433;BME280;16405;53.964;13.448;2023-05-24T00:10:28;101291.34;;;8.83;97.66
29433;BME280;16405;53.964;13.448;2023-05-24T00:12:54;101288.00;;;8.78;98.65
29433;BME280;16405;53.964;13.448;2023-05-24T00:15:20;101287.34;;;8.71;98.85
29433;BME280;16405;53.964;13.448;2023-05-24T00:17:47;101292.72;;;8.67;99.08
29433;BME280;16405;53.964;13.448;2023-05-24T00:20:13;101293.69;;;8.64;99.20
29433;BME280;16405;53.964;13.448;2023-05-24T00:22:40;101291.16;;;8.59;98.77
29433;BME280;16405;53.964;13.448;2023-05-24T00:25:07;101287.03;;;8.52;98.95
29433;BME280;16405;53.964;13.448;2023-05-24T00:27:33;101288.09;;;8.45;99.34
29433;BME280;16405;53.964;13.448;2023-05-24T00:30:02;101284.81;;;8.37;99.90
29433;BME280;16405;53.964;13.448;2023-05-24T00:32:28;101283.13;;;8.34;100.00
29433;BME280;16405;53.964;13.448;2023-05-24T00:34:54;101290.19;;;8.32;100.00
29433;BME280;16405;53.964;13.448;2023-05-24T00:37:20;101282.47;;;8.26;100.00
29433;BME280;16405;53.964;13.448;2023-05-24T00:39:46;101286.91;;;8.24;100.00
29433;BME280;16405;53.964;13.448;2023-05-24T00:42:12;101293.13;;;8.20;100.00
29433;BME280;16405;53.964;13.448;2023-05-24T00:44:38;101291.44;;;8.19;100.00
29433;BME280;16405;53.964;13.448;2023-05-24T00:47:04;101291.47;;;8.17;100.00
29433;BME280;16405;53.964;13.448;2023-05-24T00:49:30;101289.81;;;8.15;100.00
29433;BME280;16405;53.964;13.448;2023-05-24T00:51:56;101293.44;;;8.09;100.00
29433;BME280;16405;53.964;13.448;2023-05-24T00:54:22;101298.63;;;8.12;100.00
29433;BME280;16405;53.964;13.448;2023-05-24T00:56:50;101296.00;;;8.12;100.00
29433;BME280;16405;53.964;13.448;2023-05-24T00:59:16;101303.91;;;8.11;100.00
29433;BME280;16405;53.964;13.448;2023-05-24T01:01:42;101302.13;;;8.11;100.00
29433;BME280;16405;53.964;13.448;2023-05-24T01:04:12;101301.19;;;8.14;100.00
29433;BME280;16405;53.964;13.448;2023-05-24T01:09:57;101309.72;;;8.20;100.00
29433;BME280;16405;53.964;13.448;2023-05-24T01:18:22;101304.00;;;8.40;100.00
29433;BME280;16405;53.964;13.448;2023-05-24T01:21:58;101309.13;;;8.44;100.00
29433;BME280;16405;53.964;13.448;2023-05-24T01:24:38;101309.84;;;8.49;100.00
29433;BME280;16405;53.964;13.448;2023-05-24T01:27:13;101302.72;;;8.54;100.00
29433;BME280;16405;53.964;13.448;2023-05-24T01:29:40;101306.16;;;8.56;100.00
29433;BME280;16405;53.964;13.448;2023-05-24T01:32:06;101302.59;;;8.58;100.00
29433;BME280;16405;53.964;13.448;2023-05-24T01:34:33;101307.84;;;8.58;100.00
29433;BME280;16405;53.964;13.448;2023-05-24T01:36:59;101308.66;;;8.60;100.00
29433;BME280;16405;53.964;13.448;2023-05-24T01:39:28;101312.13;;;8.61;100.00
29433;BME280;16405;53.964;13.448;2023-05-24T01:48:03;101310.50;;;8.57;100.00
29433;BME280;16405;53.964;13.448;2023-05-24T01:50:48;101321.88;;;8.57;99.59
29433;BME280;16405;53.964;13.448;2023-05-24T01:53:19;101320.16;;;8.56;99.71
29433;BME280;16405;53.964;13.448;2023-05-24T01:55:48;101322.78;;;8.56;99.38
29433;BME280;16405;53.964;13.448;2023-05-24T01:58:17;101321.06;;;8.55;99.71
29433;BME280;16405;53.964;13.448;2023-05-24T02:00:45;101325.44;;;8.55;99.40
29433;BME280;16405;53.964;13.448;2023-05-24T02:03:13;101331.59;;;8.54;99.17
29433;BME280;16405;53.964;13.448;2023-05-24T02:05:40;101328.13;;;8.53;99.24
29433;BME280;16405;53.964;13.448;2023-05-24T02:08:06;101330.66;;;8.56;99.71
29433;BME280;16405;53.964;13.448;2023-05-24T02:10:34;101330.53;;;8.59;99.64
29433;BME280;16405;53.964;13.448;2023-05-24T02:13:04;101327.03;;;8.60;99.54
29433;BME280;16405;53.964;13.448;2023-05-24T02:15:31;101329.56;;;8.63;99.76
29433;BME280;16405;53.964;13.448;2023-05-24T02:17:57;101323.44;;;8.63;99.52
29433;BME280;16405;53.964;13.448;2023-05-24T02:20:23;101327.81;;;8.64;100.00
29433;BME280;16405;53.964;13.448;2023-05-24T02:22:49;101318.13;;;8.66;99.66
29433;BME280;16405;53.964;13.448;2023-05-24T02:25:18;101320.66;;;8.69;99.41
29433;BME280;16405;53.964;13.448;2023-05-24T02:27:43;101323.25;;;8.71;99.31
29433;BME280;16405;53.964;13.448;2023-05-24T02:30:12;101322.38;;;8.70;99.45
29433;BME280;16405;53.964;13.448;2023-05-24T02:32:43;101321.50;;;8.70;99.81
29433;BME280;16405;53.964;13.448;2023-05-24T02:35:09;101318.88;;;8.70;99.95
29433;BME280;16405;53.964;13.448;2023-05-24T02:37:35;101317.09;;;8.70;99.73
29433;BME280;16405;53.964;13.448;2023-05-24T02:40:00;101318.03;;;8.69;100.00
29433;BME280;16405;53.964;13.448;2023-05-24T02:42:26;101311.94;;;8.69;99.91
29433;BME280;16405;53.964;13.448;2023-05-24T02:44:52;101319.88;;;8.66;100.00
29433;BME280;16405;53.964;13.448;2023-05-24T02:47:18;101328.69;;;8.63;100.00
29433;BME280;16405;53.964;13.448;2023-05-24T02:49:47;101334.06;;;8.60;100.00
29433;BME280;16405;53.964;13.448;2023-05-24T02:52:13;101334.88;;;8.62;100.00
29433;BME280;16405;53.964;13.448;2023-05-24T02:54:40;101342.69;;;8.63;100.00
29433;BME280;16405;53.964;13.448;2023-05-24T02:57:06;101337.44;;;8.63;100.00
29433;BME280;16405;53.964;13.448;2023-05-24T02:59:32;101345.25;;;8.67;99.35
29433;BME280;16405;53.964;13.448;2023-05-24T03:02:00;101352.16;;;8.69;99.59
29433;BME280;16405;53.964;13.448;2023-05-24T03:04:26;101355.63;;;8.70;99.02
29433;BME280;16405;53.964;13.448;2023-05-24T03:06:52;101348.59;;;8.72;98.99
29433;BME280;16405;53.964;13.448;2023-05-24T03:09:18;101353.78;;;8.73;99.04
29433;BME280;16405;53.964;13.448;2023-05-24T03:11:44;101355.50;;;8.74;98.78
29433;BME280;16405;53.964;13.448;2023-05-24T03:14:10;101363.31;;;8.77;98.70
29433;BME280;16405;53.964;13.448;2023-05-24T03:16:36;101365.84;;;8.80;99.15
29433;BME280;16405;53.964;13.448;2023-05-24T03:19:03;101364.03;;;8.82;98.84
29433;BME280;16405;53.964;13.448;2023-05-24T03:21:31;101367.47;;;8.85;99.31
29433;BME280;16405;53.964;13.448;2023-05-24T03:23:57;101365.66;;;8.87;98.68
29433;BME280;16405;53.964;13.448;2023-05-24T03:26:23;101370.81;;;8.90;99.01
29433;BME280;16405;53.964;13.448;2023-05-24T03:28:49;101368.19;;;8.90;98.62
29433;BME280;16405;53.964;13.448;2023-05-24T03:31:21;101370.69;;;8.94;99.09
29433;BME280;16405;53.964;13.448;2023-05-24T03:33:48;101368.94;;;8.95;99.28
29433;BME280;16405;53.964;13.448;2023-05-24T03:36:14;101364.53;;;8.95;99.33
29433;BME280;16405;53.964;13.448;2023-05-24T03:38:40;101363.63;;;8.96;99.47
29433;BME280;16405;53.964;13.448;2023-05-24T03:41:06;101365.25;;;9.00;99.62
29433;BME280;16405;53.964;13.448;2023-05-24T03:43:32;101364.31;;;9.03;99.51
29433;BME280;16405;53.964;13.448;2023-05-24T03:45:58;101371.97;;;9.09;99.32
29433;BME280;16405;53.964;13.448;2023-05-24T03:48:23;101371.06;;;9.12;99.59
29433;BME280;16405;53.964;13.448;2023-05-24T03:50:52;101372.63;;;9.17;99.13
29433;BME280;16405;53.964;13.448;2023-05-24T03:53:19;101369.03;;;9.20;99.31
29433;BME280;16405;53.964;13.448;2023-05-24T03:55:45;101369.72;;;9.27;98.94
29433;BME280;16405;53.964;13.448;2023-05-24T03:58:11;101374.84;;;9.31;99.05
29433;BME280;16405;53.964;13.448;2023-05-24T04:00:39;101369.50;;;9.33;99.19
29433;BME280;16405;53.964;13.448;2023-05-24T04:03:07;101386.06;;;9.36;98.54
29433;BME280;16405;53.964;13.448;2023-05-24T04:05:34;101384.28;;;9.37;98.83
29433;BME280;16405;53.964;13.448;2023-05-24T04:07:59;101381.66;;;9.37;98.79
29433;BME280;16405;53.964;13.448;2023-05-24T04:10:26;101381.81;;;9.32;99.03
29433;BME280;16405;53.964;13.448;2023-05-24T04:12:52;101383.66;;;9.29;99.44
29433;BME280;16405;53.964;13.448;2023-05-24T04:15:18;101383.56;;;9.32;99.33
29433;BME280;16405;53.964;13.448;2023-05-24T04:17:46;101386.09;;;9.35;99.27
29433;BME280;16405;53.964;13.448;2023-05-24T04:20:12;101393.09;;;9.36;99.55
29433;BME280;16405;53.964;13.448;2023-05-24T04:22:39;101393.94;;;9.36;99.23
29433;BME280;16405;53.964;13.448;2023-05-24T04:25:05;101398.09;;;9.43;99.16
29433;BME280;16405;53.964;13.448;2023-05-24T04:27:32;101402.31;;;9.49;99.15
29433;BME280;16405;53.964;13.448;2023-05-24T04:30:02;101390.88;;;9.50;98.92
29433;BME280;16405;53.964;13.448;2023-05-24T04:32:28;101395.13;;;9.54;99.23
29433;BME280;16405;53.964;13.448;2023-05-24T04:34:55;101392.34;;;9.59;99.29
29433;BME280;16405;53.964;13.448;2023-05-24T04:37:21;101386.19;;;9.60;99.90
29433;BME280;16405;53.964;13.448;2023-05-24T04:39:46;101391.41;;;9.61;100.00
29433;BME280;16405;53.964;13.448;2023-05-24T04:42:13;101398.31;;;9.65;99.71
29433;BME280;16405;53.964;13.448;2023-05-24T04:44:43;101401.81;;;9.64;100.00
29433;BME280;16405;53.964;13.448;2023-05-24T04:47:10;101407.03;;;9.66;100.00
29433;BME280;16405;53.964;13.448;2023-05-24T04:49:37;101414.00;;;9.67;100.00
29433;BME280;16405;53.964;13.448;2023-05-24T04:52:04;101415.00;;;9.63;100.00
29433;BME280;16405;53.964;13.448;2023-05-24T04:54:33;101423.63;;;9.68;100.00
29433;BME280;16405;53.964;13.448;2023-05-24T04:56:59;101418.94;;;9.78;99.88
29433;BME280;16405;53.964;13.448;2023-05-24T04:59:25;101431.72;;;9.89;99.46
29433;BME280;16405;53.964;13.448;2023-05-24T05:01:51;101422.84;;;9.93;99.57
29433;BME280;16405;53.964;13.448;2023-05-24T05:04:17;101414.69;;;10.00;99.15
29433;BME280;16405;53.964;13.448;2023-05-24T05:06:43;101424.94;;;10.08;98.82
29433;BME280;16405;53.964;13.448;2023-05-24T05:09:09;101418.63;;;10.14;98.37
29433;BME280;16405;53.964;13.448;2023-05-24T05:11:38;101420.06;;;10.24;97.97
29433;BME280;16405;53.964;13.448;2023-05-24T05:14:04;101418.03;;;10.32;97.46
29433;BME280;16405;53.964;13.448;2023-05-24T05:16:30;101422.78;;;10.48;97.61
29433;BME280;16405;53.964;13.448;2023-05-24T05:18:57;101422.44;;;10.57;97.07
29433;BME280;16405;53.964;13.448;2023-05-24T05:21:23;101422.66;;;10.51;96.93
29433;BME280;16405;53.964;13.448;2023-05-24T05:23:51;101427.88;;;10.52;96.63
29433;BME280;16405;53.964;13.448;2023-05-24T05:26:17;101429.13;;;10.67;96.49
29433;BME280;16405;53.964;13.448;2023-05-24T05:28:46;101446.88;;;10.85;95.96
29433;BME280;16405;53.964;13.448;2023-05-24T05:31:12;101448.56;;;11.12;95.78
29433;BME280;16405;53.964;13.448;2023-05-24T05:33:38;101454.34;;;11.45;94.47
29433;BME280;16405;53.964;13.448;2023-05-24T05:36:04;101450.88;;;12.10;92.90
29433;BME280;16405;53.964;13.448;2023-05-24T05:38:37;101465.66;;;14.28;87.30
29433;BME280;16405;53.964;13.448;2023-05-24T05:41:03;101462.19;;;15.76;80.78
29433;BME280;16405;53.964;13.448;2023-05-24T05:43:30;101446.13;;;15.46;78.77
29433;BME280;16405;53.964;13.448;2023-05-24T05:45:56;101455.44;;;15.06;77.60
29433;BME280;16405;53.964;13.448;2023-05-24T05:48:22;101447.41;;;14.39;77.60
29433;BME280;16405;53.964;13.448;2023-05-24T05:50:50;101455.63;;;13.81;78.30
29433;BME280;16405;53.964;13.448;2023-05-24T05:53:16;101457.94;;;13.50;79.90
29433;BME280;16405;53.964;13.448;2023-05-24T05:55:42;101454.44;;;13.50;80.92
29433;BME280;16405;53.964;13.448;2023-05-24T05:58:07;101456.13;;;13.70;80.66
29433;BME280;16405;53.964;13.448;2023-05-24T06:00:33;101457.19;;;13.66;80.58
29433;BME280;16405;53.964;13.448;2023-05-24T06:02:59;101457.16;;;13.48;81.30
29433;BME280;16405;53.964;13.448;2023-05-24T06:05:25;101457.50;;;13.41;81.62
29433;BME280;16405;53.964;13.448;2023-05-24T06:07:53;101460.50;;;13.33;82.03
29433;BME280;16405;53.964;13.448;2023-05-24T06:10:19;101465.19;;;13.26;82.69
29433;BME280;16405;53.964;13.448;2023-05-24T06:12:45;101467.34;;;13.18;82.69
29433;BME280;16405;53.964;13.448;2023-05-24T06:15:11;101474.81;;;13.08;83.07
29433;BME280;16405;53.964;13.448;2023-05-24T06:17:36;101469.56;;;12.88;83.42
29433;BME280;16405;53.964;13.448;2023-05-24T06:20:03;101472.00;;;12.92;83.80
29433;BME280;16405;53.964;13.448;2023-05-24T06:22:40;101484.09;;;12.98;84.18
29433;BME280;16405;53.964;13.448;2023-05-24T06:25:07;101482.44;;;12.96;84.35
29433;BME280;16405;53.964;13.448;2023-05-24T06:27:34;101484.16;;;12.97;84.38
29433;BME280;16405;53.964;13.448;2023-05-24T06:30:07;101484.22;;;12.95;84.54
29433;BME280;16405;53.964;13.448;2023-05-24T06:32:33;101490.78;;;12.86;84.28
29433;BME280;16405;53.964;13.448;2023-05-24T06:34:59;101493.69;;;12.80;85.07
29433;BME280;16405;53.964;13.448;2023-05-24T06:37:30;101496.00;;;12.88;84.69
29433;BME280;16405;53.964;13.448;2023-05-24T06:39:56;101492.63;;;12.84;84.43
29433;BME280;16405;53.964;13.448;2023-05-24T06:42:22;101498.28;;;12.96;84.87
29433;BME280;16405;53.964;13.448;2023-05-24T06:44:48;101499.34;;;13.12;84.65
29433;BME280;16405;53.964;13.448;2023-05-24T06:47:13;101505.00;;;13.23;84.31
29433;BME280;16405;53.964;13.448;2023-05-24T06:49:39;101503.06;;;13.28;83.78
29433;BME280;16405;53.964;13.448;2023-05-24T06:52:09;101512.97;;;13.42;83.63
29433;BME280;16405;53.964;13.448;2023-05-24T06:54:35;101515.69;;;13.41;83.19
29433;BME280;16405;53.964;13.448;2023-05-24T06:57:02;101519.41;;;13.56;82.78
29433;BME280;16405;53.964;13.448;2023-05-24T06:59:28;101517.50;;;13.59;82.53
29433;BME280;16405;53.964;13.448;2023-05-24T07:01:54;101517.56;;;13.58;82.43
29433;BME280;16405;53.964;13.448;2023-05-24T07:04:25;101524.94;;;13.51;81.58
29433;BME280;16405;53.964;13.448;2023-05-24T07:06:51;101526.72;;;13.50;82.02
29433;BME280;16405;53.964;13.448;2023-05-24T07:09:20;101527.78;;;13.46;81.58
29433;BME280;16405;53.964;13.448;2023-05-24T07:11:46;101536.66;;;13.64;81.98
29433;BME280;16405;53.964;13.448;2023-05-24T07:14:12;101539.47;;;13.61;80.96
29433;BME280;16405;53.964;13.448;2023-05-24T07:16:37;101542.97;;;13.62;81.19
29433;BME280;16405;53.964;13.448;2023-05-24T07:19:03;101547.69;;;13.74;81.86
29433;BME280;16405;53.964;13.448;2023-05-24T07:21:32;101547.31;;;13.82;81.95
29433;BME280;16405;53.964;13.448;2023-05-24T07:23:57;101546.75;;;13.75;81.06
29433;BME280;16405;53.964;13.448;2023-05-24T07:26:23;101549.44;;;13.73;80.57
29433;BME280;16405;53.964;13.448;2023-05-24T07:28:49;101547.59;;;13.75;80.67
29433;BME280;16405;53.964;13.448;2023-05-24T07:31:15;101546.97;;;13.70;80.85
29433;BME280;16405;53.964;13.448;2023-05-24T07:33:43;101552.69;;;13.61;80.58
29433;BME280;16405;53.964;13.448;2023-05-24T07:36:12;101551.06;;;13.59;80.82
29433;BME280;16405;53.964;13.448;2023-05-24T07:38:38;101549.53;;;13.53;80.53
29433;BME280;16405;53.964;13.448;2023-05-24T07:41:06;101553.31;;;13.47;80.77
29433;BME280;16405;53.964;13.448;2023-05-24T07:43:31;101553.25;;;13.49;80.56
29433;BME280;16405;53.964;13.448;2023-05-24T07:46:03;101559.16;;;13.54;80.94
29433;BME280;16405;53.964;13.448;2023-05-24T07:48:29;101558.09;;;13.58;80.65
29433;BME280;16405;53.964;13.448;2023-05-24T07:50:55;101559.38;;;13.49;80.64
29433;BME280;16405;53.964;13.448;2023-05-24T07:53:21;101569.63;;;13.57;80.91
29433;BME280;16405;53.964;13.448;2023-05-24T07:55:48;101573.34;;;13.53;80.64
29433;BME280;16405;53.964;13.448;2023-05-24T07:58:13;101571.75;;;13.49;80.31
29433;BME280;16405;53.964;13.448;2023-05-24T08:00:41;101577.22;;;13.46;80.69
29433;BME280;16405;53.964;13.448;2023-05-24T08:03:09;101576.41;;;13.44;80.64
29433;BME280;16405;53.964;13.448;2023-05-24T08:05:37;101587.22;;;13.39;80.55
29433;BME280;16405;53.964;13.448;2023-05-24T08:08:03;101583.56;;;13.42;80.89
29433;BME280;16405;53.964;13.448;2023-05-24T08:10:29;101584.13;;;13.48;80.44
29433;BME280;16405;53.964;13.448;2023-05-24T08:12:55;101596.09;;;13.57;80.82
29433;BME280;16405;53.964;13.448;2023-05-24T08:15:21;101597.53;;;13.64;80.67
29433;BME280;16405;53.964;13.448;2023-05-24T08:17:52;101604.34;;;13.70;81.15
29433;BME280;16405;53.964;13.448;2023-05-24T08:20:18;101598.66;;;13.78;80.30
29433;BME280;16405;53.964;13.448;2023-05-24T08:22:43;101605.41;;;13.85;80.06
29433;BME280;16405;53.964;13.448;2023-05-24T08:25:10;101604.41;;;13.87;78.96
29433;BME280;16405;53.964;13.448;2023-05-24T08:27:39;101612.19;;;13.90;78.81
29433;BME280;16405;53.964;13.448;2023-05-24T08:30:06;101610.13;;;13.97;78.54
29433;BME280;16405;53.964;13.448;2023-05-24T08:32:35;101611.69;;;14.01;78.48
29433;BME280;16405;53.964;13.448;2023-05-24T08:35:01;101611.84;;;13.98;78.43
29433;BME280;16405;53.964;13.448;2023-05-24T08:37:27;101623.94;;;14.04;78.63
29433;BME280;16405;53.964;13.448;2023-05-24T08:39:54;101621.78;;;14.12;79.40
29433;BME280;16405;53.964;13.448;2023-05-24T08:42:23;101623.38;;;14.16;78.66
29433;BME280;16405;53.964;13.448;2023-05-24T08:45:13;101619.91;;;14.33;78.48
29433;BME280;16405;53.964;13.448;2023-05-24T08:47:42;101618.16;;;14.51;78.20
29433;BME280;16405;53.964;13.448;2023-05-24T08:50:08;101621.75;;;14.69;77.89
29433;BME280;16405;53.964;13.448;2023-05-24T08:52:37;101628.38;;;14.77;76.99
29433;BME280;16405;53.964;13.448;2023-05-24T08:55:04;101626.66;;;14.94;76.74
29433;BME280;16405;53.964;13.448;2023-05-24T08:57:32;101632.19;;;15.07;76.23
29433;BME280;16405;53.964;13.448;2023-05-24T09:00:02;101632.69;;;15.15;75.26
29433;BME280;16405;53.964;13.448;2023-05-24T09:02:30;101636.88;;;15.36;75.21
29433;BME280;16405;53.964;13.448;2023-05-24T09:04:58;101633.22;;;15.55;74.83
29433;BME280;16405;53.964;13.448;2023-05-24T09:07:31;101648.38;;;15.70;74.07
29433;BME280;16405;53.964;13.448;2023-05-24T09:10:06;101644.13;;;15.84;73.48
29433;BME280;16405;53.964;13.448;2023-05-24T09:12:34;101646.78;;;15.84;72.65
29433;BME280;16405;53.964;13.448;2023-05-24T09:15:02;101650.84;;;16.07;73.40
29433;BME280;16405;53.964;13.448;2023-05-24T09:17:30;101655.41;;;16.20;73.17
29433;BME280;16405;53.964;13.448;2023-05-24T09:20:07;101655.91;;;16.27;72.74
29433;BME280;16405;53.964;13.448;2023-05-24T09:22:35;101656.00;;;16.26;72.25
29433;BME280;16405;53.964;13.448;2023-05-24T09:25:05;101660.38;;;16.27;71.61
29433;BME280;16405;53.964;13.448;2023-05-24T09:27:35;101659.88;;;16.20;71.11
29433;BME280;16405;53.964;13.448;2023-05-24T09:30:09;101657.53;;;16.14;72.11
29433;BME280;16405;53.964;13.448;2023-05-24T09:33:01;101662.53;;;16.20;72.11
29433;BME280;16405;53.964;13.448;2023-05-24T09:35:30;101666.88;;;16.21;72.39
29433;BME280;16405;53.964;13.448;2023-05-24T09:37:57;101665.16;;;16.04;71.86
29433;BME280;16405;53.964;13.448;2023-05-24T09:40:27;101669.97;;;16.13;71.72
29433;BME280;16405;53.964;13.448;2023-05-24T09:43:05;101664.47;;;16.01;70.88
29433;BME280;16405;53.964;13.448;2023-05-24T09:45:47;101665.66;;;15.95;71.30
29433;BME280;16405;53.964;13.448;2023-05-24T09:48:15;101672.16;;;15.89;70.86
29433;BME280;16405;53.964;13.448;2023-05-24T09:51:05;101671.94;;;16.10;71.09
29433;BME280;16405;53.964;13.448;2023-05-24T09:53:35;101675.25;;;15.97;70.54
29433;BME280;16405;53.964;13.448;2023-05-24T09:56:09;101675.06;;;15.85;70.51
29433;BME280;16405;53.964;13.448;2023-05-24T09:58:41;101672.81;;;15.77;69.72
29433;BME280;16405;53.964;13.448;2023-05-24T10:01:09;101679.44;;;15.86;70.22
29433;BME280;16405;53.964;13.448;2023-05-24T10:03:53;101677.47;;;15.89;70.15
29433;BME280;16405;53.964;13.448;2023-05-24T10:06:19;101686.13;;;15.93;70.24
29433;BME280;16405;53.964;13.448;2023-05-24T10:08:47;101679.78;;;15.95;70.63
29433;BME280;16405;53.964;13.448;2023-05-24T10:11:15;101679.72;;;15.97;70.31
29433;BME280;16405;53.964;13.448;2023-05-24T10:13:44;101682.97;;;16.02;70.05
29433;BME280;16405;53.964;13.448;2023-05-24T10:16:10;101682.28;;;15.98;69.89
29433;BME280;16405;53.964;13.448;2023-05-24T10:18:44;101691.81;;;16.03;69.81
29433;BME280;16405;53.964;13.448;2023-05-24T10:21:13;101686.19;;;15.91;68.89
29433;BME280;16405;53.964;13.448;2023-05-24T10:23:43;101683.47;;;15.93;69.53
29433;BME280;16405;53.964;13.448;2023-05-24T10:26:11;101689.63;;;15.93;69.72
29433;BME280;16405;53.964;13.448;2023-05-24T10:28:46;101686.25;;;16.07;70.29
29433;BME280;16405;53.964;13.448;2023-05-24T10:31:34;101686.78;;;16.14;70.10
29433;BME280;16405;53.964;13.448;2023-05-24T10:34:02;101689.50;;;16.12;69.53
29433;BME280;16405;53.964;13.448;2023-05-24T10:36:33;101692.59;;;16.20;69.30
29433;BME280;16405;53.964;13.448;2023-05-24T10:38:59;101691.66;;;16.22;68.58
29433;BME280;16405;53.964;13.448;2023-05-24T10:41:26;101700.66;;;16.19;67.87
29433;BME280;16405;53.964;13.448;2023-05-24T10:43:52;101701.44;;;16.37;68.34
29433;BME280;16405;53.964;13.448;2023-05-24T10:46:28;101706.31;;;16.60;69.24
29433;BME280;16405;53.964;13.448;2023-05-24T10:49:20;101704.94;;;16.69;68.11
29433;BME280;16405;53.964;13.448;2023-05-24T10:51:46;101701.84;;;16.77;67.75
29433;BME280;16405;53.964;13.448;2023-05-24T10:54:17;101705.81;;;16.86;67.40
29433;BME280;16405;53.964;13.448;2023-05-24T10:56:51;101705.97;;;16.98;67.22
29433;BME280;16405;53.964;13.448;2023-05-24T10:59:30;101698.91;;;17.13;66.78
29433;BME280;16405;53.964;13.448;2023-05-24T11:01:59;101710.81;;;17.36;66.57
29433;BME280;16405;53.964;13.448;2023-05-24T11:04:34;101726.88;;;17.65;67.36
29433;BME280;16405;53.964;13.448;2023-05-24T11:07:03;101721.59;;;17.94;66.92
29433;BME280;16405;53.964;13.448;2023-05-24T11:09:35;101727.50;;;17.99;65.44
29433;BME280;16405;53.964;13.448;2023-05-24T11:12:06;101720.19;;;18.02;65.08
29433;BME280;16405;53.964;13.448;2023-05-24T11:14:39;101720.78;;;17.77;64.03
29433;BME280;16405;53.964;13.448;2023-05-24T11:17:06;101728.59;;;17.66;63.62
29433;BME280;16405;53.964;13.448;2023-05-24T11:19:43;101724.63;;;17.73;64.18
29433;BME280;16405;53.964;13.448;2023-05-24T11:22:11;101723.72;;;17.89;65.00
29433;BME280;16405;53.964;13.448;2023-05-24T11:24:40;101725.59;;;17.87;63.80
29433;BME280;16405;53.964;13.448;2023-05-24T11:27:09;101724.84;;;17.85;62.79
29433;BME280;16405;53.964;13.448;2023-05-24T11:29:51;101721.28;;;17.70;63.21
29433;BME280;16405;53.964;13.448;2023-05-24T11:32:19;101730.31;;;17.67;64.22
29433;BME280;16405;53.964;13.448;2023-05-24T11:34:46;101718.94;;;17.49;63.89
29433;BME280;16405;53.964;13.448;2023-05-24T11:37:13;101720.47;;;17.53;63.39
29433;BME280;16405;53.964;13.448;2023-05-24T11:39:49;101725.47;;;17.74;63.15
29433;BME280;16405;53.964;13.448;2023-05-24T11:42:21;101730.50;;;17.78;63.21
29433;BME280;16405;53.964;13.448;2023-05-24T11:44:50;101730.56;;;17.93;62.16
29433;BME280;16405;53.964;13.448;2023-05-24T11:47:18;101735.31;;;18.16;62.65
29433;BME280;16405;53.964;13.448;2023-05-24T11:49:51;101742.34;;;18.32;63.46
29433;BME280;16405;53.964;13.448;2023-05-24T11:52:17;101734.31;;;18.46;63.61
29433;BME280;16405;53.964;13.448;2023-05-24T11:54:43;101744.00;;;18.61;62.70
29433;BME280;16405;53.964;13.448;2023-05-24T11:57:12;101744.75;;;18.63;61.39
29433;BME280;16405;53.964;13.448;2023-05-24T11:59:45;101743.03;;;18.77;61.68
29433;BME280;16405;53.964;13.448;2023-05-24T12:02:11;101748.91;;;18.96;62.18
29433;BME280;16405;53.964;13.448;2023-05-24T12:04:37;101745.81;;;19.02;61.09
29433;BME280;16405;53.964;13.448;2023-05-24T12:07:03;101753.72;;;19.04;60.88
29433;BME280;16405;53.964;13.448;2023-05-24T12:09:37;101752.56;;;19.08;60.44
29433;BME280;16405;53.964;13.448;2023-05-24T12:12:05;101753.09;;;19.13;60.46
29433;BME280;16405;53.964;13.448;2023-05-24T12:14:33;101754.88;;;19.27;60.61
29433;BME280;16405;53.964;13.448;2023-05-24T12:17:16;101752.59;;;19.21;60.87
29433;BME280;16405;53.964;13.448;2023-05-24T12:19:49;101756.16;;;19.34;60.42
29433;BME280;16405;53.964;13.448;2023-05-24T12:22:25;101764.59;;;19.41;60.80
29433;BME280;16405;53.964;13.448;2023-05-24T12:24:52;101758.31;;;19.42;58.97
29433;BME280;16405;53.964;13.448;2023-05-24T12:27:17;101753.13;;;19.26;58.18
29433;BME280;16405;53.964;13.448;2023-05-24T12:29:43;101765.91;;;19.48;57.86
29433;BME280;16405;53.964;13.448;2023-05-24T12:32:10;101770.75;;;19.68;59.01
29433;BME280;16405;53.964;13.448;2023-05-24T12:34:42;101762.31;;;19.62;59.33
29433;BME280;16405;53.964;13.448;2023-05-24T12:37:13;101767.28;;;19.81;59.46
29433;BME280;16405;53.964;13.448;2023-05-24T12:39:39;101763.41;;;20.11;58.79
29433;BME280;16405;53.964;13.448;2023-05-24T12:42:09;101762.53;;;20.36;58.30
29433;BME280;16405;53.964;13.448;2023-05-24T12:44:37;101757.25;;;20.60;57.22
29433;BME280;16405;53.964;13.448;2023-05-24T12:47:05;101768.72;;;20.86;56.87
29433;BME280;16405;53.964;13.448;2023-05-24T12:49:34;101768.00;;;21.08;57.12
29433;BME280;16405;53.964;13.448;2023-05-24T12:52:00;101772.63;;;21.06;56.04
29433;BME280;16405;53.964;13.448;2023-05-24T12:54:29;101768.97;;;21.07;54.85
29433;BME280;16405;53.964;13.448;2023-05-24T12:56:56;101772.63;;;21.06;55.26
29433;BME280;16405;53.964;13.448;2023-05-24T12:59:25;101771.25;;;21.00;54.92
29433;BME280;16405;53.964;13.448;2023-05-24T13:01:52;101770.38;;;20.76;55.56
29433;BME280;16405;53.964;13.448;2023-05-24T13:04:20;101771.34;;;20.99;56.20